Hit Tracker is now ESPN Home Run Tracker! Hit Tracker founder Greg Rybarczyk is now collaborating with the ESPN Stats & Information Group to continue tracking all MLB home runs, and helping baseball fans know "How Far It Really Went!™" Please credit any information on this site to ESPN Stats & Information Group. For more information and analysis on home runs, please contact founder Greg Rybarczyk. E-Mail ESPN Home Run Tracker
Main Page | Ballparks | Park Overlays | Glossary | Highlight Homers | Feedback | Bio | 3 Types of HR's | AAA Home Run Derby Last Updated: July 27, 2016, 10:22 pm PST
If you want to know "How Far It Really Went!", then you've come to the right place! Welcome to the ESPN Home Run Tracker, where you can find accurate, transparently verifiable distances for every home run hit in MLB games. Please also check out the ESPN MLB Scoreboard throughout the 2016 season! Contact us at grybar@hittrackeronline.com.
Season:
Ballpark detail for Target Field
Ballpark # of Home Runs HR per game Avg.
True
Distance
Avg.
Speed
Off
Bat
Avg.
Std.
Dist.
Target Field 124 2.43 396.7 104.5 398.5

Scatter Plot of Home Runs Target Field
 Overlay Ballpark:
Without range rings   With range rings

2016 Season Home Runs for Target Field
Click headers to sort
Date Video Path Hitter Hitter
Team
 ^
Pitcher Pitcher
Team
INN Ballpark Type/
Luck
True
Dist.
Speed
Off
Bat
Elev.
Angle
Horiz.
Angle
Apex Impact Due To: Std.
Dist.
#
Parks
Wind Temp. Alt.
07/26/16 Video View Garcia, Adonis ATL Santana, Ervin MIN 2 Target Field PL 395 110.6 22.9 116.7 62 -3 1 1 395 30
07/27/16 Video View Francoeur, Jeff ATL Duffey, Tyler MIN 1 Target Field JE 421 110.9 18.3 88.2 58 3 0 0 418 19
07/27/16 Video View Freeman, Freddie ATL Tonkin, Michael MIN 4 Target Field PL 422 105.4 29.1 87.8 124 -16 0 2 435 29
05/10/16 Video View Machado, Manny BAL Berrios, Jose MIN 5 Target Field PL 385 104.1 23.9 107.2 68 -1 -1 1 386 29
05/10/16 Video View Jones, Adam BAL Berrios, Jose MIN 5 Target Field PL 436 108.0 27.0 97.4 108 -6 -3 2 443 30
05/11/16 Video View Trumbo, Mark BAL Hughes, Phil MIN 2 Target Field PL 427 105.9 27.8 98.7 104 -2 -3 2 430 30
05/11/16 Video View Davis, Chris BAL Hughes, Phil MIN 4 Target Field ND 412 106.7 28.3 69.8 96 -2 -3 2 415 30
05/11/16 Video View Trumbo, Mark BAL Hughes, Phil MIN 4 Target Field JE/L 398 101.8 24.8 97.8 78 0 -1 1 398 12
05/11/16 Video View Jones, Adam BAL Kintzler, Brandon MIN 9 Target Field PL 385 105.5 27.4 122.6 76 -2 -2 1 387 30
06/10/16 Video View Bogaerts, Xander BOS Duffey, Tyler MIN 5 Target Field PL 425 104.0 27.5 94.5 100 -3 2 2 424 28
06/11/16 Video View Bradley Jr., Jackie BOS Gibson, Kyle MIN 1 Target Field JE 358 98.3 28.6 59.2 72 -1 2 1 356 24
06/11/16 Video View Bogaerts, Xander BOS Pressly, Ryan MIN 8 Target Field JE/L 390 97.9 31.2 101.0 100 -1 4 2 384 12
06/12/16 Video View Young, Chris BOS Dean, Pat MIN 5 Target Field PL 396 108.8 22.3 108.0 66 -3 1 1 397 30
04/13/16 Video View Sands, Jerry CHW Hughes, Phil MIN 7 Target Field JE 425 109.4 19.4 89.9 65 4 0 0 421 23
04/14/16 Video View Garcia, Avisail CHW Santana, Ervin MIN 4 Target Field PL 434 105.8 25.4 91.6 90 0 0 1 433 28
04/25/16 Video View Gomes, Yan CLE Pressly, Ryan MIN 8 Target Field PL 407 103.1 25.7 97.8 88 -3 -2 1 411 28
04/26/16 Video View Kipnis, Jason CLE Nolasco, Ricky MIN 1 Target Field JE 355 101.0 25.4 63.4 68 -6 -2 1 362 24
04/26/16 Video View Uribe, Juan CLE Nolasco, Ricky MIN 3 Target Field PL 375 105.4 23.3 112.6 62 -2 -2 1 377 28
04/26/16 Video View Napoli, Mike CLE Jepsen, Kevin MIN 9 Target Field PL 418 108.0 25.3 102.0 94 -9 -3 1 429 30
07/15/16 Video View Napoli, Mike CLE Pressly, Ryan MIN 8 Target Field JE 413 102.5 32.6 94.2 127 -2 0 3 411 24
07/17/16 Video View Napoli, Mike CLE Gibson, Kyle MIN 2 Target Field ND 408 108.4 25.9 112.3 82 -7 1 1 412 30
07/17/16 Video View Naquin, Tyler CLE Ramirez, Neil MIN 8 Target Field PL 426 107.5 21.7 86.7 74 2 0 0 423 25
07/17/16 Video View Kipnis, Jason CLE Ramirez, Neil MIN 9 Target Field PL 410 107.3 20.8 97.1 67 2 0 0 407 22
04/29/16 Video View Cabrera, Miguel DET Hughes, Phil MIN 5 Target Field PL 404 106.5 24.3 73.5 74 -1 -1 1 405 30
04/29/16 Video View Martinez, Victor DET Fien, Casey MIN 8 Target Field PL 379 100.7 26.8 72.5 80 -3 -1 1 382 25
04/29/16 Video View Castellanos, Nick DET Fien, Casey MIN 8 Target Field PL 424 105.6 23.6 87.2 85 -1 -1 0 425 27
04/30/16 Video View Upton, Justin DET Duffey, Tyler MIN 1 Target Field ND 425 113.1 22.2 105.2 73 -3 -1 1 428 30
05/01/16 Video View Castellanos, Nick DET Nolasco, Ricky MIN 6 Target Field JE/L 374 100.9 24.4 104.4 72 -4 0 1 377 20
05/24/16 Video View Perez, Salvador KC Santana, Ervin MIN 2 Target Field PL 423 103.5 27.0 86.8 97 -2 1 1 422 27
04/17/16 Video View Pujols, Albert LAA Gibson, Kyle MIN 1 Target Field PL 396 102.5 32.5 108.8 114 -4 2 3 395 30
04/15/16 Video View Pujols, Albert LAA Milone, Tommy MIN 7 Target Field JE 362 100.8 25.5 65.8 68 -4 0 1 365 25
04/15/16 Video View Calhoun, Kole LAA Milone, Tommy MIN 7 Target Field ND 392 106.0 27.8 66.2 92 -15 0 2 404 30
06/09/16 Video View Johnson, Chris MIA Rogers, Taylor MIN 7 Target Field JE/L 350 98.4 27.0 66.4 77 -12 0 1 360 22
04/19/16 Video View Park, Byung Ho MIN Thornburg, Tyler MIL 8 Target Field ND 407 106.5 26.2 108.1 85 -5 -2 1 411 30
04/19/16 Video View Rosario, Eddie MIN Thornburg, Tyler MIL 8 Target Field JE 416 104.5 23.4 87.1 82 0 0 1 416 22
04/18/16 Video View Sano, Miguel MIN Anderson, Chase MIL 2 Target Field PL 415 113.2 18.4 97.7 57 3 0 0 411 22
04/18/16 Video View Park, Byung Ho MIN Anderson, Chase MIL 4 Target Field PL 385 103.0 29.9 74.3 112 -22 -1 2 405 30
04/16/16 Video View Plouffe, Trevor MIN Weaver, Jered LAA 3 Target Field PL 383 107.6 23.9 118.9 62 -2 0 1 383 30
04/16/16 Video View Arcia, Oswaldo MIN Smith, Joe LAA 8 Target Field PL 420 109.1 20.2 95.0 65 2 0 1 418 25
04/16/16 Video View Park, Byung Ho MIN Smith, Joe LAA 8 Target Field ND 466 112.9 22.6 91.7 91 -2 0 1 465 30
04/25/16 Video View Arcia, Oswaldo MIN McAllister, Zach CLE 9 Target Field PL 382 101.6 26.2 72.4 76 -1 -2 1 384 24
04/26/16 Video View Rosario, Eddie MIN Anderson, Cody CLE 6 Target Field JE/L 369 99.9 25.9 71.8 73 -2 -2 1 372 14
04/27/16 Video View Park, Byung Ho MIN Tomlin, Josh CLE 6 Target Field PL 445 110.4 22.0 87.6 79 0 -1 1 446 29
04/30/16 Video View Park, Byung Ho MIN Zimmermann, Jordan DET 4 Target Field PL 431 116.1 17.4 95.0 57 5 0 0 426 27
05/10/16 Video View Plouffe, Trevor MIN Gausman, Kevin BAL 6 Target Field PL 406 105.6 26.8 106.2 90 -5 -2 2 412 30
05/11/16 Video View Sano, Miguel MIN Wilson, Tyler BAL 2 Target Field PL 413 103.7 30.0 99.6 113 -3 -3 3 417 30
05/20/16 Video View Grossman, Robbie MIN Girodo, Chad TOR 9 Target Field PL 416 104.2 27.1 99.9 94 -3 0 1 418 30
05/21/16 Video View Nunez, Eduardo MIN Floyd, Gavin TOR 8 Target Field PL 406 103.1 26.9 103.6 84 0 1 2 404 30
05/23/16 Video View Mauer, Joe MIN Kennedy, Ian KC 1 Target Field JE 357 95.4 31.2 110.9 89 -4 0 2 359 11
05/25/16 Video View Nunez, Eduardo MIN Gee, Dillon KC 1 Target Field JE 397 100.5 31.0 98.6 112 -6 0 2 401 26
05/25/16 Video View Dozier, Brian MIN Gee, Dillon KC 1 Target Field PL 379 101.0 34.0 111.2 117 -6 -1 3 381 30
05/25/16 Video View Sano, Miguel MIN Gee, Dillon KC 5 Target Field ND 428 110.2 24.0 103.8 81 -3 0 1 430 30
06/02/16 Video View Nunez, Eduardo MIN Moore, Matt TB 1 Target Field ITP/L 338 92.1 31.7 67.7 85 -3 0 2 340 1
06/02/16 Video View Dozier, Brian MIN Moore, Matt TB 5 Target Field JE 358 102.2 25.0 122.1 59 -1 0 0 357 18
06/05/16 Video View Park, Byung Ho MIN Smyly, Drew TB 3 Target Field PL 397 105.6 25.0 108.1 78 -6 0 1 400 30
06/05/16 Video View Grossman, Robbie MIN Smyly, Drew TB 3 Target Field PL 429 107.1 23.5 94.5 89 -5 0 1 431 29
06/05/16 Video View Nunez, Eduardo MIN Cedeno, Xavier TB 8 Target Field JE/L 367 103.0 23.3 110.9 61 -2 0 1 368 17
06/07/16 Video View Nunez, Eduardo MIN Conley, Adam MIA 1 Target Field ND 426 109.8 28.3 109.6 103 -9 0 2 432 30
06/07/16 Video View Nunez, Eduardo MIN Conley, Adam MIA 5 Target Field JE/L 416 103.8 24.4 93.4 84 -1 0 1 416 20
06/07/16 Video View Grossman, Robbie MIN Phelps, David MIA 8 Target Field JE 414 108.3 21.9 80.0 68 0 0 0 413 28
06/07/16 Video View Dozier, Brian MIN McGowan, Dustin MIA 11 Target Field JE 362 101.8 25.3 119.1 62 0 0 1 361 17
06/08/16 Video View Mauer, Joe MIN Chen, Wei-Yin MIA 1 Target Field JE 389 102.1 24.5 102.7 70 -1 0 0 389 18
06/08/16 Video View Plouffe, Trevor MIN Chen, Wei-Yin MIA 3 Target Field JE 393 100.1 32.7 99.9 119 -6 1 3 394 24
06/08/16 Video View Park, Byung Ho MIN Chen, Wei-Yin MIA 6 Target Field PL 419 105.8 31.9 98.6 132 -10 0 3 425 30
06/11/16 Video View Suzuki, Kurt MIN Rodriguez, Eduardo BOS 4 Target Field PL 391 105.4 23.4 107.2 65 -1 1 0 390 30
06/12/16 Video View Kepler, Max MIN Barnes, Matt BOS 10 Target Field PL 428 109.1 20.1 87.2 70 5 0 0 422 26
06/17/16 Video View Escobar, Eduardo MIN Goody, Nick NYY 9 Target Field PL 361 98.6 30.9 59.7 86 -5 0 1 363 30
06/18/16 Video View Park, Byung Ho MIN Pineda, Michael NYY 4 Target Field JE 398 104.0 24.1 77.1 71 -1 1 0 397 27
06/18/16 Video View Suzuki, Kurt MIN Chapman, Aroldis NYY 9 Target Field PL 396 102.1 29.4 109.7 92 -3 3 2 393 30
06/18/16 Video View Escobar, Eduardo MIN Chapman, Aroldis NYY 9 Target Field JE 344 103.5 41.0 114.8 159 -12 10 6 339 10
06/19/16 Video View Kepler, Max MIN Eovaldi, Nathan NYY 5 Target Field JE/L 368 105.6 22.8 63.1 56 -1 1 1 367 18
06/19/16 Video View Dozier, Brian MIN Yates, Kirby NYY 7 Target Field PL 406 106.5 25.2 108.0 78 -4 2 1 406 30
06/21/16 Video View Suzuki, Kurt MIN Oberholtzer, Brett PHI 5 Target Field JE 371 97.7 33.0 106.4 109 -7 1 2 374 22
07/01/16 Video View Plouffe, Trevor MIN Perez, Martin TEX 7 Target Field JE 360 97.8 27.7 66.3 72 0 0 1 359 10
07/02/16 Video View Kepler, Max MIN Ramos, Cesar TEX 2 Target Field JE 367 96.6 30.7 72.1 92 -4 0 2 368 12
07/02/16 Video View Sano, Miguel MIN Ramos, Cesar TEX 3 Target Field PL 375 103.2 35.3 112.5 131 -15 1 4 384 30
07/02/16 Video View Kepler, Max MIN Jackson, Luke TEX 5 Target Field JE 367 98.5 28.0 70.2 81 -6 1 1 370 21
07/05/16 Video View Vargas, Kennys MIN Manaea, Sean OAK 5 Target Field JE 366 99.7 25.7 110.5 68 -1 0 1 366 13
07/05/16 Video View Kepler, Max MIN Manaea, Sean OAK 5 Target Field PL 380 104.9 25.4 62.7 68 -2 0 1 381 29
07/05/16 Video View Sano, Miguel MIN Hendriks, Liam OAK 8 Target Field JE 362 96.6 30.5 72.2 94 -8 -1 2 369 16
07/15/16 Video View Dozier, Brian MIN Carrasco, Carlos CLE 4 Target Field ND 406 107.2 29.9 121.6 92 -1 1 2 404 30
07/17/16 Video View Kepler, Max MIN Tomlin, Josh CLE 6 Target Field PL 363 98.9 32.5 67.1 105 -16 2 2 373 29
07/27/16 Video View Suzuki, Kurt MIN Foltynewicz, Mike ATL 4 Target Field JE/L 361 102.2 23.6 112.9 59 -1 0 0 362 10
06/16/16 Video View Gregorius, Didi NYY Abad, Fernando MIN 7 Target Field PL 370 100.7 28.6 65.7 86 -10 1 2 377 29
06/17/16 Video View Beltran, Carlos NYY Dean, Pat MIN 1 Target Field ND 406 106.8 27.1 113.6 83 -3 0 1 406 30
06/18/16 Video View Rodriguez, Alex NYY Nolasco, Ricky MIN 7 Target Field JE 383 99.7 28.1 72.9 82 -1 2 1 382 24
06/18/16 Video View Beltran, Carlos NYY Jepsen, Kevin MIN 8 Target Field JE 358 96.0 30.1 113.9 81 -3 3 2 356 11
06/19/16 Video View McCann, Brian NYY Santana, Ervin MIN 2 Target Field PL 435 106.9 25.4 85.2 99 -6 2 1 437 28
06/19/16 Video View McCann, Brian NYY Kintzler, Brandon MIN 9 Target Field ND 445 116.7 27.2 62.9 100 -16 4 3 452 30
07/05/16 Video View Semien, Marcus OAK Milone, Tommy MIN 2 Target Field PL 397 103.2 27.7 112.8 78 6 -1 1 390 30
07/05/16 Video View Valencia, Danny OAK Ramirez, Neil MIN 8 Target Field JE 392 104.9 23.6 74.3 68 -1 0 1 393 25
06/21/16 Video View Joseph, Tommy PHI Duffey, Tyler MIN 3 Target Field ND 404 106.0 30.0 114.8 100 -7 1 2 407 30
06/21/16 Video View Bourjos, Peter PHI Duffey, Tyler MIN 2 Target Field PL 399 102.9 32.2 107.4 115 -5 2 3 399 30
06/21/16 Video View Rupp, Cameron PHI Duffey, Tyler MIN 3 Target Field PL 407 104.3 27.3 104.7 91 -5 1 2 409 30
06/21/16 Video View Franco, Maikel PHI Tonkin, Michael MIN 8 Target Field PL 391 113.3 21.4 120.1 54 0 0 1 390 30
06/22/16 Video View Rupp, Cameron PHI Gibson, Kyle MIN 2 Target Field JE 361 102.7 25.5 55.4 61 0 1 1 360 28
06/22/16 Video View Blanco, Andres PHI Gibson, Kyle MIN 3 Target Field JE 389 100.5 31.0 80.0 115 -14 0 2 399 26
06/23/16 Video View Howard, Ryan PHI Nolasco, Ricky MIN 2 Target Field JE 421 104.7 28.4 86.1 115 -12 0 2 430 28
06/23/16 Video View Galvis, Freddy PHI Jepsen, Kevin MIN 8 Target Field ND 387 104.5 29.2 62.1 91 -9 1 2 394 30
06/02/16 Video View Longoria, Evan TB Hughes, Phil MIN 5 Target Field PL 387 107.6 23.6 115.8 62 0 0 1 386 30
06/03/16 Video View Longoria, Evan TB Nolasco, Ricky MIN 1 Target Field JE 417 104.2 23.9 87.5 80 0 0 0 417 23
06/03/16 Video View Morrison, Logan TB Kintzler, Brandon MIN 9 Target Field JE 395 101.3 25.8 99.7 83 -3 0 1 397 20
06/04/16 Video View Conger, Hank TB Santana, Ervin MIN 3 Target Field JE 352 95.1 31.0 63.9 83 -1 0 2 351 11
06/04/16 Video View Souza Jr., Steven TB Santana, Ervin MIN 4 Target Field ND 416 110.1 24.9 111.9 76 -1 0 2 416 30
06/04/16 Video View Longoria, Evan TB Santana, Ervin MIN 5 Target Field PL 382 102.5 32.8 116.1 108 -7 0 3 387 30
06/04/16 Video View Morrison, Logan TB Tonkin, Michael MIN 7 Target Field PL 430 107.5 22.3 88.0 78 0 0 0 430 27
06/05/16 Video View Morrison, Logan TB Duffey, Tyler MIN 4 Target Field JE/L 365 98.0 26.7 107.2 75 -4 1 1 367 14
06/05/16 Video View Longoria, Evan TB Kintzler, Brandon MIN 8 Target Field PL 418 109.2 20.2 96.5 66 3 1 0 413 24
06/05/16 Video View Morrison, Logan TB Duffey, Tyler MIN 2 Target Field PL 368 101.8 32.0 73.4 123 -35 2 3 396 30
06/05/16 Video View Longoria, Evan TB Duffey, Tyler MIN 6 Target Field JE/L 396 101.9 24.8 81.2 86 -5 1 1 398 18
07/01/16 Video View Desmond, Ian TEX Abad, Fernando MIN 10 Target Field JE 419 103.8 25.7 83.2 85 0 0 1 418 25
07/02/16 Video View Rua, Ryan TEX Duffey, Tyler MIN 4 Target Field JE/L 418 106.2 21.8 93.4 72 1 0 0 417 21
07/02/16 Video View Chirinos, Robinson TEX Duffey, Tyler MIN 4 Target Field ND 403 106.5 26.4 112.2 81 -3 1 2 404 30
07/02/16 Video View Choo, Shin-Soo TEX Tonkin, Michael MIN 7 Target Field ND 437 112.8 26.1 69.0 91 -6 1 2 439 30
07/03/16 Video View Choo, Shin-Soo TEX Gibson, Kyle MIN 1 Target Field PL 408 109.0 19.8 98.0 63 4 0 0 403 23
05/19/16 Video View Encarnacion, Edwin TOR Santana, Ervin MIN 6 Target Field ND 400 109.0 26.1 121.0 74 -2 0 2 401 30
05/20/16 Video View Donaldson, Josh TOR Duffey, Tyler MIN 3 Target Field PL 417 106.7 29.9 102.9 119 -15 0 3 428 30
05/20/16 Video View Bautista, Jose TOR May, Trevor MIN 6 Target Field JE 387 100.4 31.5 101.0 115 -12 0 3 397 30
05/20/16 Video View Saunders, Michael TOR Rogers, Taylor MIN 7 Target Field ND 396 106.7 25.5 66.2 74 -3 0 1 397 30
05/20/16 Video View Barney, Darwin TOR Tonkin, Michael MIN 8 Target Field PL 392 103.9 29.3 115.4 91 -3 0 2 394 30
05/21/16 Video View Bautista, Jose TOR Dean, Pat MIN 3 Target Field PL 380 101.1 35.6 109.9 127 -2 2 4 377 30
05/21/16 Video View Saunders, Michael TOR Jepsen, Kevin MIN 9 Target Field ND 434 110.9 23.7 76.5 79 -1 1 1 433 29
05/22/16 Video View Bautista, Jose TOR Hughes, Phil MIN 1 Target Field JE 357 107.1 21.5 121.4 49 -1 1 1 356 11
05/22/16 Video View Donaldson, Josh TOR Hughes, Phil MIN 1 Target Field JE 425 107.2 21.5 92.4 73 2 0 0 422 23


About HitTracker | Contact Us
© 2006-2016 HitTrackerOnline